sensor_id;sensor_type;location;lat;lon;timestamp;P1;durP1;ratioP1;P2;durP2;ratioP2
34920;SDS011;21128;50.016;20.002;2023-07-02T00:00:06;26.33;;;19.77;;
34920;SDS011;21128;50.016;20.002;2023-07-02T00:02:35;24.90;;;19.90;;
34920;SDS011;21128;50.016;20.002;2023-07-02T00:05:03;25.40;;;20.60;;
34920;SDS011;21128;50.016;20.002;2023-07-02T00:07:31;25.37;;;20.43;;
34920;SDS011;21128;50.016;20.002;2023-07-02T00:09:59;25.57;;;20.20;;
34920;SDS011;21128;50.016;20.002;2023-07-02T00:12:26;22.75;;;19.37;;
34920;SDS011;21128;50.016;20.002;2023-07-02T00:14:53;24.50;;;19.77;;
34920;SDS011;21128;50.016;20.002;2023-07-02T00:17:20;26.77;;;19.32;;
34920;SDS011;21128;50.016;20.002;2023-07-02T00:19:47;24.57;;;19.70;;
34920;SDS011;21128;50.016;20.002;2023-07-02T00:22:18;22.47;;;18.17;;
34920;SDS011;21128;50.016;20.002;2023-07-02T00:24:45;26.60;;;19.33;;
34920;SDS011;21128;50.016;20.002;2023-07-02T00:27:12;22.20;;;19.40;;
34920;SDS011;21128;50.016;20.002;2023-07-02T00:29:39;26.27;;;19.90;;
34920;SDS011;21128;50.016;20.002;2023-07-02T00:32:06;24.97;;;19.83;;
34920;SDS011;21128;50.016;20.002;2023-07-02T00:34:33;24.53;;;19.87;;
34920;SDS011;21128;50.016;20.002;2023-07-02T00:37:00;25.80;;;20.43;;
34920;SDS011;21128;50.016;20.002;2023-07-02T00:39:30;26.10;;;20.25;;
34920;SDS011;21128;50.016;20.002;2023-07-02T00:42:03;26.97;;;19.48;;
34920;SDS011;21128;50.016;20.002;2023-07-02T00:44:30;23.87;;;19.77;;
34920;SDS011;21128;50.016;20.002;2023-07-02T00:46:57;24.65;;;20.82;;
34920;SDS011;21128;50.016;20.002;2023-07-02T00:49:25;23.43;;;20.17;;
34920;SDS011;21128;50.016;20.002;2023-07-02T00:51:53;23.93;;;18.53;;
34920;SDS011;21128;50.016;20.002;2023-07-02T00:54:20;22.70;;;18.60;;
34920;SDS011;21128;50.016;20.002;2023-07-02T00:56:49;26.87;;;18.40;;
34920;SDS011;21128;50.016;20.002;2023-07-02T00:59:19;23.37;;;17.53;;
34920;SDS011;21128;50.016;20.002;2023-07-02T01:01:46;24.97;;;18.97;;
34920;SDS011;21128;50.016;20.002;2023-07-02T01:04:17;21.07;;;17.63;;
34920;SDS011;21128;50.016;20.002;2023-07-02T01:06:45;25.87;;;17.87;;
34920;SDS011;21128;50.016;20.002;2023-07-02T01:09:12;21.97;;;17.00;;
34920;SDS011;21128;50.016;20.002;2023-07-02T01:11:43;19.80;;;16.20;;
34920;SDS011;21128;50.016;20.002;2023-07-02T01:16:45;19.23;;;16.50;;
34920;SDS011;21128;50.016;20.002;2023-07-02T01:22:21;21.60;;;15.90;;
34920;SDS011;21128;50.016;20.002;2023-07-02T01:24:51;18.67;;;15.83;;
34920;SDS011;21128;50.016;20.002;2023-07-02T01:27:19;22.53;;;15.70;;
34920;SDS011;21128;50.016;20.002;2023-07-02T01:29:50;18.60;;;14.70;;
34920;SDS011;21128;50.016;20.002;2023-07-02T01:32:18;20.30;;;15.40;;
34920;SDS011;21128;50.016;20.002;2023-07-02T01:34:46;19.20;;;14.63;;
34920;SDS011;21128;50.016;20.002;2023-07-02T01:37:19;17.25;;;13.70;;
34920;SDS011;21128;50.016;20.002;2023-07-02T01:39:46;18.17;;;14.65;;
34920;SDS011;21128;50.016;20.002;2023-07-02T01:42:17;17.87;;;14.37;;
34920;SDS011;21128;50.016;20.002;2023-07-02T01:47:15;17.73;;;13.97;;
34920;SDS011;21128;50.016;20.002;2023-07-02T01:49:42;19.53;;;15.07;;
34920;SDS011;21128;50.016;20.002;2023-07-02T01:52:09;19.37;;;14.35;;
34920;SDS011;21128;50.016;20.002;2023-07-02T01:54:36;18.80;;;14.37;;
34920;SDS011;21128;50.016;20.002;2023-07-02T01:57:03;20.17;;;13.48;;
34920;SDS011;21128;50.016;20.002;2023-07-02T01:59:31;19.83;;;14.27;;
34920;SDS011;21128;50.016;20.002;2023-07-02T02:01:58;18.63;;;14.07;;
34920;SDS011;21128;50.016;20.002;2023-07-02T02:04:25;18.82;;;14.15;;
34920;SDS011;21128;50.016;20.002;2023-07-02T02:06:52;17.27;;;14.27;;
34920;SDS011;21128;50.016;20.002;2023-07-02T02:09:20;17.95;;;13.85;;
34920;SDS011;21128;50.016;20.002;2023-07-02T02:11:50;20.17;;;13.78;;
34920;SDS011;21128;50.016;20.002;2023-07-02T02:14:18;17.20;;;13.90;;
34920;SDS011;21128;50.016;20.002;2023-07-02T02:16:45;20.03;;;13.40;;
34920;SDS011;21128;50.016;20.002;2023-07-02T02:19:12;20.57;;;13.67;;
34920;SDS011;21128;50.016;20.002;2023-07-02T02:21:43;17.23;;;14.57;;
34920;SDS011;21128;50.016;20.002;2023-07-02T02:24:10;16.43;;;13.07;;
34920;SDS011;21128;50.016;20.002;2023-07-02T02:26:37;17.50;;;13.80;;
34920;SDS011;21128;50.016;20.002;2023-07-02T02:29:04;19.57;;;14.53;;
34920;SDS011;21128;50.016;20.002;2023-07-02T02:31:31;16.40;;;13.53;;
34920;SDS011;21128;50.016;20.002;2023-07-02T02:33:59;21.87;;;14.83;;
34920;SDS011;21128;50.016;20.002;2023-07-02T02:36:26;17.87;;;14.60;;
34920;SDS011;21128;50.016;20.002;2023-07-02T02:38:53;19.75;;;15.05;;
34920;SDS011;21128;50.016;20.002;2023-07-02T02:41:20;19.93;;;14.73;;
34920;SDS011;21128;50.016;20.002;2023-07-02T02:43:47;18.52;;;14.83;;
34920;SDS011;21128;50.016;20.002;2023-07-02T02:46:19;17.27;;;13.07;;
34920;SDS011;21128;50.016;20.002;2023-07-02T02:48:50;21.53;;;13.47;;
34920;SDS011;21128;50.016;20.002;2023-07-02T02:51:18;18.40;;;14.43;;
34920;SDS011;21128;50.016;20.002;2023-07-02T02:53:45;16.67;;;14.15;;
34920;SDS011;21128;50.016;20.002;2023-07-02T02:56:13;20.70;;;15.53;;
34920;SDS011;21128;50.016;20.002;2023-07-02T02:58:40;19.30;;;15.07;;
34920;SDS011;21128;50.016;20.002;2023-07-02T03:01:07;19.67;;;14.40;;
34920;SDS011;21128;50.016;20.002;2023-07-02T03:03:40;22.53;;;15.60;;
34920;SDS011;21128;50.016;20.002;2023-07-02T03:06:12;21.13;;;14.67;;
34920;SDS011;21128;50.016;20.002;2023-07-02T03:08:42;16.33;;;14.00;;
34920;SDS011;21128;50.016;20.002;2023-07-02T03:11:09;17.77;;;14.53;;
34920;SDS011;21128;50.016;20.002;2023-07-02T03:13:36;17.35;;;13.80;;
34920;SDS011;21128;50.016;20.002;2023-07-02T03:16:03;17.73;;;13.73;;
34920;SDS011;21128;50.016;20.002;2023-07-02T03:18:30;18.03;;;13.87;;
34920;SDS011;21128;50.016;20.002;2023-07-02T03:20:57;19.52;;;13.95;;
34920;SDS011;21128;50.016;20.002;2023-07-02T03:23:25;20.80;;;13.83;;
34920;SDS011;21128;50.016;20.002;2023-07-02T03:25:52;20.77;;;14.70;;
34920;SDS011;21128;50.016;20.002;2023-07-02T03:28:19;18.07;;;14.10;;
34920;SDS011;21128;50.016;20.002;2023-07-02T03:30:46;18.77;;;14.67;;
34920;SDS011;21128;50.016;20.002;2023-07-02T03:33:13;16.42;;;13.13;;
34920;SDS011;21128;50.016;20.002;2023-07-02T03:35:40;20.83;;;13.70;;
34920;SDS011;21128;50.016;20.002;2023-07-02T03:38:07;18.77;;;14.67;;
34920;SDS011;21128;50.016;20.002;2023-07-02T03:40:34;19.80;;;14.97;;
34920;SDS011;21128;50.016;20.002;2023-07-02T03:43:01;17.87;;;13.07;;
34920;SDS011;21128;50.016;20.002;2023-07-02T03:45:28;16.77;;;12.43;;
34920;SDS011;21128;50.016;20.002;2023-07-02T03:47:55;16.57;;;12.80;;
34920;SDS011;21128;50.016;20.002;2023-07-02T03:50:22;20.47;;;12.70;;
34920;SDS011;21128;50.016;20.002;2023-07-02T03:52:49;18.47;;;14.10;;
34920;SDS011;21128;50.016;20.002;2023-07-02T03:55:17;22.02;;;13.65;;
34920;SDS011;21128;50.016;20.002;2023-07-02T03:57:45;16.47;;;13.50;;
34920;SDS011;21128;50.016;20.002;2023-07-02T04:00:12;18.95;;;13.38;;
34920;SDS011;21128;50.016;20.002;2023-07-02T04:02:39;18.70;;;13.20;;
34920;SDS011;21128;50.016;20.002;2023-07-02T04:05:06;21.50;;;11.83;;
34920;SDS011;21128;50.016;20.002;2023-07-02T04:07:33;14.70;;;11.13;;
34920;SDS011;21128;50.016;20.002;2023-07-02T04:10:00;16.35;;;11.75;;
34920;SDS011;21128;50.016;20.002;2023-07-02T04:12:27;16.10;;;11.63;;
34920;SDS011;21128;50.016;20.002;2023-07-02T04:14:55;17.23;;;11.43;;
34920;SDS011;21128;50.016;20.002;2023-07-02T04:17:21;16.57;;;10.87;;
34920;SDS011;21128;50.016;20.002;2023-07-02T04:19:48;13.70;;;11.30;;
34920;SDS011;21128;50.016;20.002;2023-07-02T04:22:15;16.82;;;10.90;;
34920;SDS011;21128;50.016;20.002;2023-07-02T04:24:42;21.73;;;13.70;;
34920;SDS011;21128;50.016;20.002;2023-07-02T04:27:09;14.97;;;12.17;;
34920;SDS011;21128;50.016;20.002;2023-07-02T04:29:37;18.30;;;10.33;;
34920;SDS011;21128;50.016;20.002;2023-07-02T04:32:04;14.40;;;11.27;;
34920;SDS011;21128;50.016;20.002;2023-07-02T04:34:31;17.07;;;11.33;;
34920;SDS011;21128;50.016;20.002;2023-07-02T04:36:58;14.57;;;10.30;;
34920;SDS011;21128;50.016;20.002;2023-07-02T04:39:25;16.07;;;11.43;;
34920;SDS011;21128;50.016;20.002;2023-07-02T04:41:52;20.65;;;11.15;;
34920;SDS011;21128;50.016;20.002;2023-07-02T04:44:19;12.70;;;10.97;;
34920;SDS011;21128;50.016;20.002;2023-07-02T04:46:56;16.57;;;10.70;;
34920;SDS011;21128;50.016;20.002;2023-07-02T04:49:24;13.30;;;10.80;;
34920;SDS011;21128;50.016;20.002;2023-07-02T04:51:51;12.53;;;9.80;;
34920;SDS011;21128;50.016;20.002;2023-07-02T04:54:23;14.83;;;10.37;;
34920;SDS011;21128;50.016;20.002;2023-07-02T04:56:50;14.30;;;10.90;;
34920;SDS011;21128;50.016;20.002;2023-07-02T04:59:19;13.70;;;10.27;;
34920;SDS011;21128;50.016;20.002;2023-07-02T05:01:47;16.43;;;10.37;;
34920;SDS011;21128;50.016;20.002;2023-07-02T05:04:16;14.47;;;10.90;;
34920;SDS011;21128;50.016;20.002;2023-07-02T05:06:43;15.13;;;10.72;;
34920;SDS011;21128;50.016;20.002;2023-07-02T05:09:10;15.30;;;9.50;;
34920;SDS011;21128;50.016;20.002;2023-07-02T05:11:36;12.57;;;10.20;;
34920;SDS011;21128;50.016;20.002;2023-07-02T05:14:03;15.90;;;9.83;;
34920;SDS011;21128;50.016;20.002;2023-07-02T05:16:30;13.15;;;9.70;;
34920;SDS011;21128;50.016;20.002;2023-07-02T05:18:57;14.50;;;9.57;;
34920;SDS011;21128;50.016;20.002;2023-07-02T05:21:24;10.40;;;9.10;;
34920;SDS011;21128;50.016;20.002;2023-07-02T05:23:51;12.13;;;9.30;;
34920;SDS011;21128;50.016;20.002;2023-07-02T05:26:18;11.07;;;9.37;;
34920;SDS011;21128;50.016;20.002;2023-07-02T05:28:45;13.18;;;9.08;;
34920;SDS011;21128;50.016;20.002;2023-07-02T05:31:12;10.90;;;9.20;;
34920;SDS011;21128;50.016;20.002;2023-07-02T05:33:39;16.55;;;9.10;;
34920;SDS011;21128;50.016;20.002;2023-07-02T05:36:06;12.40;;;8.45;;
34920;SDS011;21128;50.016;20.002;2023-07-02T05:38:33;14.57;;;9.43;;
34920;SDS011;21128;50.016;20.002;2023-07-02T05:41:01;12.87;;;9.37;;
34920;SDS011;21128;50.016;20.002;2023-07-02T05:43:29;13.53;;;8.50;;
34920;SDS011;21128;50.016;20.002;2023-07-02T05:45:59;15.73;;;8.67;;
34920;SDS011;21128;50.016;20.002;2023-07-02T05:48:29;12.33;;;7.73;;
34920;SDS011;21128;50.016;20.002;2023-07-02T05:50:56;11.60;;;7.20;;
34920;SDS011;21128;50.016;20.002;2023-07-02T05:53:23;12.20;;;7.95;;
34920;SDS011;21128;50.016;20.002;2023-07-02T05:55:50;10.75;;;8.03;;
34920;SDS011;21128;50.016;20.002;2023-07-02T05:58:17;9.57;;;6.80;;
34920;SDS011;21128;50.016;20.002;2023-07-02T06:00:45;10.67;;;7.37;;
34920;SDS011;21128;50.016;20.002;2023-07-02T06:03:16;11.83;;;6.80;;
34920;SDS011;21128;50.016;20.002;2023-07-02T06:05:47;11.50;;;7.13;;
34920;SDS011;21128;50.016;20.002;2023-07-02T06:08:16;11.77;;;6.50;;
34920;SDS011;21128;50.016;20.002;2023-07-02T06:10:43;10.53;;;5.70;;
34920;SDS011;21128;50.016;20.002;2023-07-02T06:13:13;7.57;;;6.20;;
34920;SDS011;21128;50.016;20.002;2023-07-02T06:15:40;9.60;;;6.20;;
34920;SDS011;21128;50.016;20.002;2023-07-02T06:18:08;7.37;;;5.90;;
34920;SDS011;21128;50.016;20.002;2023-07-02T06:20:35;8.77;;;5.70;;
34920;SDS011;21128;50.016;20.002;2023-07-02T06:23:02;11.63;;;6.62;;
34920;SDS011;21128;50.016;20.002;2023-07-02T06:25:28;11.13;;;5.87;;
34920;SDS011;21128;50.016;20.002;2023-07-02T06:27:55;10.80;;;6.80;;
34920;SDS011;21128;50.016;20.002;2023-07-02T06:30:24;9.40;;;6.30;;
34920;SDS011;21128;50.016;20.002;2023-07-02T06:32:52;10.30;;;6.10;;
34920;SDS011;21128;50.016;20.002;2023-07-02T06:35:20;11.63;;;5.57;;
34920;SDS011;21128;50.016;20.002;2023-07-02T06:37:47;7.27;;;5.73;;
34920;SDS011;21128;50.016;20.002;2023-07-02T06:40:14;10.00;;;5.97;;
34920;SDS011;21128;50.016;20.002;2023-07-02T06:42:41;10.70;;;5.87;;
34920;SDS011;21128;50.016;20.002;2023-07-02T06:45:08;7.57;;;5.20;;
34920;SDS011;21128;50.016;20.002;2023-07-02T06:47:35;6.43;;;5.63;;
34920;SDS011;21128;50.016;20.002;2023-07-02T06:50:03;11.97;;;5.27;;
34920;SDS011;21128;50.016;20.002;2023-07-02T06:52:30;11.33;;;5.77;;
34920;SDS011;21128;50.016;20.002;2023-07-02T06:54:57;7.70;;;5.10;;
34920;SDS011;21128;50.016;20.002;2023-07-02T06:57:24;9.10;;;5.13;;
34920;SDS011;21128;50.016;20.002;2023-07-02T06:59:51;9.50;;;4.90;;
34920;SDS011;21128;50.016;20.002;2023-07-02T07:02:18;6.13;;;5.13;;
34920;SDS011;21128;50.016;20.002;2023-07-02T07:04:45;12.03;;;5.03;;
34920;SDS011;21128;50.016;20.002;2023-07-02T07:07:12;7.17;;;4.23;;
34920;SDS011;21128;50.016;20.002;2023-07-02T07:09:40;10.10;;;5.40;;
34920;SDS011;21128;50.016;20.002;2023-07-02T07:12:07;8.55;;;4.50;;
34920;SDS011;21128;50.016;20.002;2023-07-02T07:14:34;7.37;;;4.73;;
34920;SDS011;21128;50.016;20.002;2023-07-02T07:17:01;6.50;;;4.77;;
34920;SDS011;21128;50.016;20.002;2023-07-02T07:19:28;9.00;;;5.20;;
34920;SDS011;21128;50.016;20.002;2023-07-02T07:21:55;11.17;;;5.47;;
34920;SDS011;21128;50.016;20.002;2023-07-02T07:24:22;7.87;;;5.25;;
34920;SDS011;21128;50.016;20.002;2023-07-02T07:26:49;7.93;;;5.00;;
34920;SDS011;21128;50.016;20.002;2023-07-02T07:29:16;11.83;;;4.73;;
34920;SDS011;21128;50.016;20.002;2023-07-02T07:31:43;9.68;;;4.65;;
34920;SDS011;21128;50.016;20.002;2023-07-02T07:34:13;5.00;;;4.13;;
34920;SDS011;21128;50.016;20.002;2023-07-02T07:36:40;8.18;;;4.37;;
34920;SDS011;21128;50.016;20.002;2023-07-02T07:39:07;6.67;;;4.07;;
34920;SDS011;21128;50.016;20.002;2023-07-02T07:41:34;6.30;;;4.20;;
34920;SDS011;21128;50.016;20.002;2023-07-02T07:44:00;8.93;;;5.60;;
34920;SDS011;21128;50.016;20.002;2023-07-02T07:46:28;6.00;;;3.83;;
34920;SDS011;21128;50.016;20.002;2023-07-02T07:48:55;5.95;;;4.22;;
34920;SDS011;21128;50.016;20.002;2023-07-02T07:51:21;12.53;;;4.63;;
34920;SDS011;21128;50.016;20.002;2023-07-02T07:53:49;9.53;;;4.67;;
34920;SDS011;21128;50.016;20.002;2023-07-02T07:56:16;9.33;;;4.67;;
34920;SDS011;21128;50.016;20.002;2023-07-02T07:58:42;8.03;;;4.40;;
34920;SDS011;21128;50.016;20.002;2023-07-02T08:01:10;9.37;;;4.80;;
34920;SDS011;21128;50.016;20.002;2023-07-02T08:03:37;10.77;;;4.57;;
34920;SDS011;21128;50.016;20.002;2023-07-02T08:06:05;5.83;;;4.40;;
34920;SDS011;21128;50.016;20.002;2023-07-02T08:08:32;8.53;;;4.93;;
34920;SDS011;21128;50.016;20.002;2023-07-02T08:10:59;9.03;;;4.60;;
34920;SDS011;21128;50.016;20.002;2023-07-02T08:13:26;8.63;;;5.13;;
34920;SDS011;21128;50.016;20.002;2023-07-02T08:15:53;6.80;;;5.10;;
34920;SDS011;21128;50.016;20.002;2023-07-02T08:18:20;9.93;;;5.22;;
34920;SDS011;21128;50.016;20.002;2023-07-02T08:20:47;8.60;;;4.83;;
34920;SDS011;21128;50.016;20.002;2023-07-02T08:23:14;9.55;;;5.10;;
34920;SDS011;21128;50.016;20.002;2023-07-02T08:25:41;9.83;;;4.90;;
34920;SDS011;21128;50.016;20.002;2023-07-02T08:28:08;10.17;;;5.13;;
34920;SDS011;21128;50.016;20.002;2023-07-02T08:30:35;9.35;;;4.47;;
34920;SDS011;21128;50.016;20.002;2023-07-02T08:33:02;5.93;;;4.27;;
34920;SDS011;21128;50.016;20.002;2023-07-02T08:35:29;8.83;;;4.10;;
34920;SDS011;21128;50.016;20.002;2023-07-02T08:37:56;5.50;;;4.23;;
34920;SDS011;21128;50.016;20.002;2023-07-02T08:40:23;9.90;;;4.77;;
34920;SDS011;21128;50.016;20.002;2023-07-02T08:42:50;7.27;;;4.23;;
34920;SDS011;21128;50.016;20.002;2023-07-02T08:45:17;7.50;;;3.95;;
34920;SDS011;21128;50.016;20.002;2023-07-02T08:47:44;6.80;;;4.10;;
34920;SDS011;21128;50.016;20.002;2023-07-02T08:50:12;5.47;;;3.80;;
34920;SDS011;21128;50.016;20.002;2023-07-02T08:52:40;5.37;;;4.30;;
34920;SDS011;21128;50.016;20.002;2023-07-02T08:55:07;7.40;;;4.73;;
34920;SDS011;21128;50.016;20.002;2023-07-02T08:57:35;16.90;;;4.63;;
34920;SDS011;21128;50.016;20.002;2023-07-02T09:00:09;6.40;;;4.60;;
34920;SDS011;21128;50.016;20.002;2023-07-02T09:02:37;7.23;;;4.70;;
34920;SDS011;21128;50.016;20.002;2023-07-02T09:05:04;5.77;;;4.27;;
34920;SDS011;21128;50.016;20.002;2023-07-02T09:07:32;16.57;;;4.27;;
34920;SDS011;21128;50.016;20.002;2023-07-02T09:10:09;10.95;;;4.30;;
34920;SDS011;21128;50.016;20.002;2023-07-02T09:12:37;8.73;;;4.25;;
34920;SDS011;21128;50.016;20.002;2023-07-02T09:15:06;11.10;;;4.37;;
34920;SDS011;21128;50.016;20.002;2023-07-02T09:17:34;8.17;;;3.70;;
34920;SDS011;21128;50.016;20.002;2023-07-02T09:20:03;5.60;;;3.57;;
34920;SDS011;21128;50.016;20.002;2023-07-02T09:22:35;13.97;;;4.33;;
34920;SDS011;21128;50.016;20.002;2023-07-02T09:25:02;11.07;;;4.07;;
34920;SDS011;21128;50.016;20.002;2023-07-02T09:27:36;6.13;;;3.37;;
34920;SDS011;21128;50.016;20.002;2023-07-02T09:30:09;15.50;;;2.93;;
34920;SDS011;21128;50.016;20.002;2023-07-02T09:32:43;9.50;;;3.83;;
34920;SDS011;21128;50.016;20.002;2023-07-02T09:35:11;5.33;;;3.17;;
34920;SDS011;21128;50.016;20.002;2023-07-02T09:37:39;9.30;;;3.70;;
34920;SDS011;21128;50.016;20.002;2023-07-02T09:40:09;8.40;;;3.35;;
34920;SDS011;21128;50.016;20.002;2023-07-02T09:42:38;10.50;;;3.20;;
34920;SDS011;21128;50.016;20.002;2023-07-02T09:45:07;6.70;;;3.00;;
34920;SDS011;21128;50.016;20.002;2023-07-02T09:47:38;5.15;;;3.10;;
34920;SDS011;21128;50.016;20.002;2023-07-02T09:50:11;5.57;;;3.07;;
34920;SDS011;21128;50.016;20.002;2023-07-02T09:52:41;9.23;;;3.60;;
34920;SDS011;21128;50.016;20.002;2023-07-02T09:55:08;7.83;;;4.23;;
34920;SDS011;21128;50.016;20.002;2023-07-02T09:57:36;10.97;;;3.80;;
34920;SDS011;21128;50.016;20.002;2023-07-02T10:00:03;8.18;;;4.22;;
34920;SDS011;21128;50.016;20.002;2023-07-02T10:02:32;12.00;;;4.00;;
34920;SDS011;21128;50.016;20.002;2023-07-02T10:04:59;5.80;;;3.90;;
34920;SDS011;21128;50.016;20.002;2023-07-02T10:07:27;5.43;;;3.67;;
34920;SDS011;21128;50.016;20.002;2023-07-02T10:09:55;11.70;;;3.87;;
34920;SDS011;21128;50.016;20.002;2023-07-02T10:12:29;6.70;;;3.60;;
34920;SDS011;21128;50.016;20.002;2023-07-02T10:14:57;6.50;;;3.13;;
34920;SDS011;21128;50.016;20.002;2023-07-02T10:17:29;6.10;;;3.37;;
34920;SDS011;21128;50.016;20.002;2023-07-02T10:20:00;4.10;;;3.33;;
34920;SDS011;21128;50.016;20.002;2023-07-02T10:22:43;8.53;;;3.37;;
34920;SDS011;21128;50.016;20.002;2023-07-02T10:25:11;6.27;;;3.30;;
34920;SDS011;21128;50.016;20.002;2023-07-02T10:27:40;4.73;;;3.47;;
34920;SDS011;21128;50.016;20.002;2023-07-02T10:30:09;11.10;;;3.85;;
34920;SDS011;21128;50.016;20.002;2023-07-02T10:32:37;5.27;;;4.23;;
34920;SDS011;21128;50.016;20.002;2023-07-02T10:35:17;6.60;;;4.10;;
34920;SDS011;21128;50.016;20.002;2023-07-02T10:37:45;8.30;;;4.77;;
34920;SDS011;21128;50.016;20.002;2023-07-02T10:40:12;6.75;;;3.50;;
34920;SDS011;21128;50.016;20.002;2023-07-02T10:42:46;6.23;;;3.50;;
34920;SDS011;21128;50.016;20.002;2023-07-02T10:45:15;5.45;;;3.35;;
34920;SDS011;21128;50.016;20.002;2023-07-02T10:47:42;5.53;;;2.30;;
34920;SDS011;21128;50.016;20.002;2023-07-02T10:50:14;4.57;;;2.47;;
34920;SDS011;21128;50.016;20.002;2023-07-02T10:52:45;5.10;;;2.87;;
34920;SDS011;21128;50.016;20.002;2023-07-02T10:55:17;7.30;;;3.80;;
34920;SDS011;21128;50.016;20.002;2023-07-02T10:57:45;6.92;;;3.67;;
34920;SDS011;21128;50.016;20.002;2023-07-02T11:00:12;10.35;;;3.85;;
34920;SDS011;21128;50.016;20.002;2023-07-02T11:02:40;3.80;;;3.15;;
34920;SDS011;21128;50.016;20.002;2023-07-02T11:05:07;6.50;;;2.97;;
34920;SDS011;21128;50.016;20.002;2023-07-02T11:07:41;4.17;;;2.20;;
34920;SDS011;21128;50.016;20.002;2023-07-02T11:10:09;3.07;;;2.37;;
34920;SDS011;21128;50.016;20.002;2023-07-02T11:12:38;3.53;;;2.67;;
34920;SDS011;21128;50.016;20.002;2023-07-02T11:15:09;5.97;;;2.77;;
34920;SDS011;21128;50.016;20.002;2023-07-02T11:17:40;2.70;;;2.30;;
34920;SDS011;21128;50.016;20.002;2023-07-02T11:20:09;5.47;;;2.30;;
34920;SDS011;21128;50.016;20.002;2023-07-02T11:22:37;3.97;;;2.70;;
34920;SDS011;21128;50.016;20.002;2023-07-02T11:25:18;5.73;;;2.07;;
34920;SDS011;21128;50.016;20.002;2023-07-02T11:27:46;3.37;;;2.40;;
34920;SDS011;21128;50.016;20.002;2023-07-02T11:30:13;2.27;;;2.08;;
34920;SDS011;21128;50.016;20.002;2023-07-02T11:32:48;6.53;;;2.30;;
34920;SDS011;21128;50.016;20.002;2023-07-02T11:35:16;2.73;;;2.00;;
34920;SDS011;21128;50.016;20.002;2023-07-02T11:37:44;5.07;;;2.50;;
34920;SDS011;21128;50.016;20.002;2023-07-02T11:40:12;3.70;;;1.97;;
34920;SDS011;21128;50.016;20.002;2023-07-02T11:42:40;5.67;;;2.43;;
34920;SDS011;21128;50.016;20.002;2023-07-02T11:45:07;3.43;;;2.30;;
34920;SDS011;21128;50.016;20.002;2023-07-02T11:47:35;2.80;;;2.10;;
34920;SDS011;21128;50.016;20.002;2023-07-02T11:50:02;3.60;;;2.60;;
34920;SDS011;21128;50.016;20.002;2023-07-02T11:52:29;4.20;;;2.20;;
34920;SDS011;21128;50.016;20.002;2023-07-02T11:54:56;7.53;;;2.60;;
34920;SDS011;21128;50.016;20.002;2023-07-02T11:57:23;5.33;;;1.90;;
34920;SDS011;21128;50.016;20.002;2023-07-02T11:59:50;2.77;;;1.90;;
34920;SDS011;21128;50.016;20.002;2023-07-02T12:02:19;4.03;;;2.00;;
34920;SDS011;21128;50.016;20.002;2023-07-02T12:04:46;5.83;;;2.00;;
34920;SDS011;21128;50.016;20.002;2023-07-02T12:07:13;3.20;;;1.93;;
34920;SDS011;21128;50.016;20.002;2023-07-02T12:09:40;3.07;;;1.93;;
34920;SDS011;21128;50.016;20.002;2023-07-02T12:12:07;2.40;;;1.70;;
34920;SDS011;21128;50.016;20.002;2023-07-02T12:14:35;4.00;;;1.67;;
34920;SDS011;21128;50.016;20.002;2023-07-02T12:17:02;6.70;;;1.90;;
34920;SDS011;21128;50.016;20.002;2023-07-02T12:19:31;4.63;;;2.00;;
34920;SDS011;21128;50.016;20.002;2023-07-02T12:21:57;3.93;;;1.83;;
34920;SDS011;21128;50.016;20.002;2023-07-02T12:24:24;5.45;;;1.92;;
34920;SDS011;21128;50.016;20.002;2023-07-02T12:26:51;9.83;;;1.80;;
34920;SDS011;21128;50.016;20.002;2023-07-02T12:29:18;2.15;;;1.62;;
34920;SDS011;21128;50.016;20.002;2023-07-02T12:31:45;2.77;;;1.77;;
34920;SDS011;21128;50.016;20.002;2023-07-02T12:34:12;2.93;;;1.67;;
34920;SDS011;21128;50.016;20.002;2023-07-02T12:36:40;2.67;;;1.90;;
34920;SDS011;21128;50.016;20.002;2023-07-02T12:39:07;2.97;;;1.70;;
34920;SDS011;21128;50.016;20.002;2023-07-02T12:41:34;2.85;;;1.95;;
34920;SDS011;21128;50.016;20.002;2023-07-02T12:44:01;3.80;;;1.30;;
34920;SDS011;21128;50.016;20.002;2023-07-02T12:46:28;3.47;;;1.33;;
34920;SDS011;21128;50.016;20.002;2023-07-02T12:48:55;4.17;;;1.70;;
34920;SDS011;21128;50.016;20.002;2023-07-02T12:51:22;3.17;;;1.20;;
34920;SDS011;21128;50.016;20.002;2023-07-02T12:53:49;2.83;;;1.80;;
34920;SDS011;21128;50.016;20.002;2023-07-02T12:56:16;1.82;;;1.22;;
34920;SDS011;21128;50.016;20.002;2023-07-02T12:58:43;2.40;;;1.50;;
34920;SDS011;21128;50.016;20.002;2023-07-02T13:01:10;2.57;;;1.47;;
34920;SDS011;21128;50.016;20.002;2023-07-02T13:03:37;3.97;;;1.33;;
34920;SDS011;21128;50.016;20.002;2023-07-02T13:06:04;2.53;;;1.50;;
34920;SDS011;21128;50.016;20.002;2023-07-02T13:08:31;4.77;;;1.60;;
34920;SDS011;21128;50.016;20.002;2023-07-02T13:10:58;2.75;;;1.50;;
34920;SDS011;21128;50.016;20.002;2023-07-02T13:13:25;1.70;;;1.60;;
34920;SDS011;21128;50.016;20.002;2023-07-02T13:15:52;2.67;;;1.43;;
34920;SDS011;21128;50.016;20.002;2023-07-02T13:18:19;4.53;;;1.60;;
34920;SDS011;21128;50.016;20.002;2023-07-02T13:20:46;6.13;;;2.50;;
34920;SDS011;21128;50.016;20.002;2023-07-02T13:23:13;2.63;;;1.63;;
34920;SDS011;21128;50.016;20.002;2023-07-02T13:25:40;2.17;;;1.50;;
34920;SDS011;21128;50.016;20.002;2023-07-02T13:28:07;3.63;;;1.90;;
34920;SDS011;21128;50.016;20.002;2023-07-02T13:30:34;9.00;;;1.60;;
34920;SDS011;21128;50.016;20.002;2023-07-02T13:33:01;8.20;;;2.10;;
34920;SDS011;21128;50.016;20.002;2023-07-02T13:35:28;2.47;;;1.60;;
34920;SDS011;21128;50.016;20.002;2023-07-02T13:37:56;2.17;;;1.60;;
34920;SDS011;21128;50.016;20.002;2023-07-02T13:40:23;2.58;;;1.90;;
34920;SDS011;21128;50.016;20.002;2023-07-02T13:42:50;3.03;;;1.87;;
34920;SDS011;21128;50.016;20.002;2023-07-02T13:45:17;4.35;;;1.95;;
34920;SDS011;21128;50.016;20.002;2023-07-02T13:47:44;2.97;;;1.53;;
34920;SDS011;21128;50.016;20.002;2023-07-02T13:50:12;3.87;;;1.80;;
34920;SDS011;21128;50.016;20.002;2023-07-02T13:52:39;2.77;;;1.60;;
34920;SDS011;21128;50.016;20.002;2023-07-02T13:55:06;3.20;;;1.87;;
34920;SDS011;21128;50.016;20.002;2023-07-02T13:57:33;2.30;;;1.53;;
34920;SDS011;21128;50.016;20.002;2023-07-02T14:00:00;4.00;;;1.12;;
34920;SDS011;21128;50.016;20.002;2023-07-02T14:02:27;2.00;;;1.20;;
34920;SDS011;21128;50.016;20.002;2023-07-02T14:04:57;3.87;;;1.10;;
34920;SDS011;21128;50.016;20.002;2023-07-02T14:07:24;3.83;;;0.80;;
34920;SDS011;21128;50.016;20.002;2023-07-02T14:09:51;9.93;;;0.95;;
34920;SDS011;21128;50.016;20.002;2023-07-02T14:12:18;5.47;;;0.90;;
34920;SDS011;21128;50.016;20.002;2023-07-02T14:14:45;6.20;;;0.70;;
34920;SDS011;21128;50.016;20.002;2023-07-02T14:17:13;2.20;;;0.80;;
34920;SDS011;21128;50.016;20.002;2023-07-02T14:19:40;6.87;;;0.90;;
34920;SDS011;21128;50.016;20.002;2023-07-02T14:22:07;3.90;;;0.70;;
34920;SDS011;21128;50.016;20.002;2023-07-02T14:24:34;4.80;;;1.00;;
34920;SDS011;21128;50.016;20.002;2023-07-02T14:27:01;1.67;;;0.50;;
34920;SDS011;21128;50.016;20.002;2023-07-02T14:29:28;3.60;;;0.90;;
34920;SDS011;21128;50.016;20.002;2023-07-02T14:31:56;6.23;;;0.70;;
34920;SDS011;21128;50.016;20.002;2023-07-02T14:34:22;0.90;;;0.60;;